createdAt,value
2018-09-05T00:00:41.770Z,15.70
2018-09-05T00:03:10.230Z,15.60
2018-09-05T00:05:38.758Z,15.60
2018-09-05T00:08:07.501Z,15.60
2018-09-05T00:10:35.964Z,15.50
2018-09-05T00:13:04.483Z,15.50
2018-09-05T00:15:33.015Z,15.50
2018-09-05T00:18:01.552Z,15.40
2018-09-05T00:20:29.993Z,15.40
2018-09-05T00:22:58.483Z,15.40
2018-09-05T00:25:26.989Z,15.40
2018-09-05T00:27:55.477Z,15.30
2018-09-05T00:30:23.971Z,15.30
2018-09-05T00:32:52.443Z,15.30
2018-09-05T00:35:20.899Z,15.20
2018-09-05T00:37:49.585Z,15.20
2018-09-05T00:40:18.065Z,15.20
2018-09-05T00:42:46.550Z,15.10
2018-09-05T00:45:15.083Z,15.10
2018-09-05T00:47:43.569Z,15.10
2018-09-05T00:50:12.074Z,15.00
2018-09-05T00:52:40.565Z,15.00
2018-09-05T00:55:09.076Z,15.00
2018-09-05T00:57:37.573Z,14.90
2018-09-05T01:00:06.251Z,14.90
2018-09-05T01:02:34.752Z,14.90
2018-09-05T01:05:03.241Z,14.90
2018-09-05T01:07:31.790Z,14.90
2018-09-05T01:10:00.277Z,14.90
2018-09-05T01:12:28.761Z,14.80
2018-09-05T01:14:57.270Z,14.80
2018-09-05T01:17:25.739Z,14.80
2018-09-05T01:19:54.226Z,14.70
2018-09-05T01:22:22.742Z,14.70
2018-09-05T01:24:51.272Z,14.60
2018-09-05T01:27:19.791Z,14.60
2018-09-05T01:29:48.328Z,14.60
2018-09-05T01:32:16.927Z,14.60
2018-09-05T01:34:45.427Z,14.60
2018-09-05T01:37:13.926Z,14.50
2018-09-05T01:39:42.401Z,14.50
2018-09-05T01:42:11.237Z,14.50
2018-09-05T01:44:40.231Z,14.50
2018-09-05T01:47:08.701Z,14.50
2018-09-05T01:49:37.212Z,14.50
2018-09-05T01:52:06.336Z,14.50
2018-09-05T01:54:34.856Z,14.40
2018-09-05T01:57:03.378Z,14.40
2018-09-05T01:59:31.910Z,14.40
2018-09-05T02:02:00.808Z,14.40
2018-09-05T02:04:29.288Z,14.30
2018-09-05T02:06:57.857Z,14.30
2018-09-05T02:09:26.352Z,14.30
2018-09-05T02:11:54.850Z,14.30
2018-09-05T02:14:23.324Z,14.20
2018-09-05T02:16:51.838Z,14.20
2018-09-05T02:19:20.341Z,14.20
2018-09-05T02:21:48.821Z,14.10
2018-09-05T02:24:17.350Z,14.10
2018-09-05T02:26:45.852Z,14.10
2018-09-05T02:29:14.399Z,14.10
2018-09-05T02:31:42.866Z,14.10
2018-09-05T02:34:11.431Z,14.10
2018-09-05T02:36:40.025Z,14.10
2018-09-05T02:39:09.839Z,14.00
2018-09-05T02:41:38.340Z,14.00
2018-09-05T02:44:12.414Z,14.00
2018-09-05T02:46:41.036Z,14.00
2018-09-05T02:49:09.980Z,14.00
2018-09-05T02:51:38.547Z,13.90
2018-09-05T02:54:07.156Z,13.90
2018-09-05T02:56:35.667Z,13.90
2018-09-05T02:59:04.220Z,13.80
2018-09-05T03:01:32.750Z,13.90
2018-09-05T03:04:01.293Z,13.80
2018-09-05T03:06:29.787Z,13.80
2018-09-05T03:08:58.273Z,13.80
2018-09-05T03:11:26.794Z,13.80
2018-09-05T03:13:55.316Z,13.80
2018-09-05T03:16:23.783Z,13.80
2018-09-05T03:18:52.407Z,13.70
2018-09-05T03:21:21.004Z,13.70
2018-09-05T03:23:49.544Z,13.70
2018-09-05T03:26:18.091Z,13.70
2018-09-05T03:28:46.581Z,13.70
2018-09-05T03:31:15.094Z,13.60
2018-09-05T03:33:43.589Z,13.60
2018-09-05T03:36:12.108Z,13.60
2018-09-05T03:41:15.443Z,13.50
2018-09-05T03:43:44.065Z,13.50
2018-09-05T03:46:12.784Z,13.40
2018-09-05T03:48:41.458Z,13.40
2018-09-05T03:51:10.180Z,13.40
2018-09-05T03:53:38.668Z,13.40
2018-09-05T03:56:07.380Z,13.40
2018-09-05T03:58:36.065Z,13.30
2018-09-05T04:01:04.669Z,13.30
2018-09-05T04:03:33.184Z,13.30
2018-09-05T04:06:01.697Z,13.20
2018-09-05T04:08:30.259Z,13.30
2018-09-05T04:10:58.809Z,13.20
2018-09-05T04:13:27.377Z,13.20
2018-09-05T04:15:55.896Z,13.20
2018-09-05T04:18:24.424Z,13.10
2018-09-05T04:20:52.904Z,13.10
2018-09-05T04:23:21.433Z,13.10
2018-09-05T04:25:49.919Z,13.00
2018-09-05T04:28:18.429Z,13.00
2018-09-05T04:30:46.885Z,13.00
2018-09-05T04:33:15.378Z,13.00
2018-09-05T04:35:43.928Z,12.90
2018-09-05T04:38:12.459Z,12.90
2018-09-05T04:40:40.950Z,12.90
2018-09-05T04:43:09.405Z,12.90
2018-09-05T04:45:37.941Z,12.90
2018-09-05T04:48:06.502Z,12.90
2018-09-05T04:50:35.034Z,12.80
2018-09-05T04:53:03.577Z,12.90
2018-09-05T04:55:32.072Z,12.90
2018-09-05T04:58:00.654Z,12.90
2018-09-05T05:00:29.161Z,13.00
2018-09-05T05:02:57.712Z,13.00
2018-09-05T05:05:26.198Z,13.00
2018-09-05T05:07:54.741Z,12.90
2018-09-05T05:10:23.274Z,12.90
2018-09-05T05:12:51.799Z,12.90
2018-09-05T05:15:20.349Z,12.90
2018-09-05T05:17:48.960Z,12.90
2018-09-05T05:20:17.484Z,12.90
2018-09-05T05:22:45.978Z,12.90
2018-09-05T05:25:14.436Z,13.00
2018-09-05T05:27:42.983Z,13.00
2018-09-05T05:30:11.494Z,13.00
2018-09-05T05:32:40.098Z,12.90
2018-09-05T05:35:08.525Z,13.00
2018-09-05T05:37:37.108Z,13.10
2018-09-05T05:40:07.651Z,13.10
2018-09-05T05:42:37.493Z,13.10
2018-09-05T05:45:06.328Z,13.10
2018-09-05T05:47:35.206Z,13.10
2018-09-05T05:50:04.208Z,13.10
2018-09-05T05:52:34.214Z,13.10
2018-09-05T05:55:03.343Z,13.20
2018-09-05T05:57:31.797Z,13.20
2018-09-05T06:00:00.618Z,13.20
2018-09-05T06:02:29.332Z,13.30
2018-09-05T06:04:57.835Z,13.30
2018-09-05T06:07:26.345Z,13.40
2018-09-05T06:09:54.840Z,13.40
2018-09-05T06:12:23.349Z,13.50
2018-09-05T06:14:51.990Z,13.60
2018-09-05T06:17:20.571Z,13.60
2018-09-05T06:19:49.241Z,13.70
2018-09-05T06:22:17.729Z,13.70
2018-09-05T06:24:46.398Z,13.80
2018-09-05T06:27:14.895Z,13.80
2018-09-05T06:29:43.346Z,13.90
2018-09-05T06:32:12.133Z,13.90
2018-09-05T06:34:40.634Z,14.00
2018-09-05T06:37:09.187Z,14.00
2018-09-05T06:39:37.742Z,14.10
2018-09-05T06:42:06.431Z,14.20
2018-09-05T06:44:34.920Z,14.20
2018-09-05T06:47:03.475Z,14.30
2018-09-05T06:49:32.282Z,14.40
2018-09-05T06:52:00.828Z,14.50
2018-09-05T06:54:29.345Z,14.50
2018-09-05T06:56:58.098Z,14.60
2018-09-05T06:59:27.162Z,14.70
2018-09-05T07:01:55.752Z,14.80
2018-09-05T07:04:24.244Z,14.90
2018-09-05T07:06:52.812Z,15.00
2018-09-05T07:09:21.324Z,15.10
2018-09-05T07:11:50.158Z,15.20
2018-09-05T07:14:18.854Z,15.30
2018-09-05T07:16:47.364Z,15.40
2018-09-05T07:19:16.154Z,15.40
2018-09-05T07:21:44.667Z,15.50
2018-09-05T07:24:13.253Z,15.70
2018-09-05T07:26:41.785Z,15.70
2018-09-05T07:29:10.326Z,15.80
2018-09-05T07:31:38.823Z,15.90
2018-09-05T07:34:07.344Z,16.00
2018-09-05T07:36:35.861Z,16.10
2018-09-05T07:39:06.713Z,16.20
2018-09-05T07:41:35.215Z,16.40
2018-09-05T07:44:03.737Z,16.50
2018-09-05T07:46:32.373Z,16.60
2018-09-05T07:49:01.200Z,16.70
2018-09-05T07:51:29.686Z,16.80
2018-09-05T07:53:58.212Z,16.90
2018-09-05T07:56:26.739Z,17.00
2018-09-05T07:58:55.445Z,17.10
2018-09-05T08:01:23.954Z,17.20
2018-09-05T08:03:52.521Z,17.30
2018-09-05T08:06:21.003Z,17.50
2018-09-05T08:08:49.579Z,17.60
2018-09-05T08:11:18.057Z,17.70
2018-09-05T08:13:46.645Z,17.90
2018-09-05T08:16:15.350Z,18.00
2018-09-05T08:18:43.869Z,18.20
2018-09-05T08:21:12.341Z,18.20
2018-09-05T08:23:40.913Z,18.30
2018-09-05T08:26:09.433Z,18.40
2018-09-05T08:28:37.966Z,18.50
2018-09-05T08:31:06.613Z,18.60
2018-09-05T08:33:35.189Z,18.70
2018-09-05T08:36:04.432Z,18.80
2018-09-05T08:38:32.884Z,19.00
2018-09-05T08:41:05.550Z,19.10
2018-09-05T08:43:34.117Z,19.20
2018-09-05T08:46:02.673Z,19.20
2018-09-05T08:48:31.172Z,19.20
2018-09-05T08:50:59.739Z,19.30
2018-09-05T08:53:28.204Z,19.50
2018-09-05T08:55:56.740Z,19.50
2018-09-05T08:58:25.233Z,19.70
2018-09-05T09:00:53.944Z,19.80
2018-09-05T09:03:22.469Z,19.90
2018-09-05T09:05:51.828Z,20.10
2018-09-05T09:08:20.423Z,20.10
2018-09-05T09:10:48.978Z,20.20
2018-09-05T09:13:17.485Z,20.50
2018-09-05T09:15:49.092Z,20.60
2018-09-05T09:18:18.735Z,20.70
2018-09-05T09:20:47.248Z,20.80
2018-09-05T09:23:15.736Z,20.90
2018-09-05T09:25:44.329Z,21.00
2018-09-05T09:28:12.812Z,21.10
2018-09-05T09:30:41.454Z,21.20
2018-09-05T09:33:10.438Z,21.20
2018-09-05T09:35:38.943Z,21.20
2018-09-05T09:38:07.616Z,21.30
2018-09-05T09:40:36.116Z,21.40
2018-09-05T09:43:04.578Z,21.50
2018-09-05T09:45:33.132Z,21.60
2018-09-05T09:48:01.768Z,21.70
2018-09-05T09:50:30.618Z,21.80
2018-09-05T09:52:59.071Z,22.00
2018-09-05T09:55:27.550Z,22.20
2018-09-05T09:57:55.996Z,22.30
2018-09-05T10:00:29.792Z,22.40
2018-09-05T10:03:03.535Z,22.40
2018-09-05T10:05:37.288Z,22.40
2018-09-05T10:08:11.252Z,22.50
2018-09-05T10:11:15.045Z,22.50
2018-09-05T10:13:49.012Z,22.60
2018-09-05T10:16:22.905Z,22.80
2018-09-05T10:18:53.150Z,22.90
2018-09-05T10:21:22.138Z,23.00
2018-09-05T10:23:50.943Z,23.00
2018-09-05T10:26:19.440Z,23.10
2018-09-05T10:28:47.942Z,23.20
2018-09-05T10:31:16.472Z,23.20
2018-09-05T10:33:45.214Z,23.20
2018-09-05T10:36:13.701Z,23.30
2018-09-05T10:38:42.267Z,23.20
2018-09-05T10:41:10.731Z,23.20
2018-09-05T10:43:39.227Z,23.30
2018-09-05T10:46:07.707Z,23.30
2018-09-05T10:48:36.233Z,23.40
2018-09-05T10:51:05.048Z,23.40
2018-09-05T10:53:33.631Z,23.50
2018-09-05T10:56:02.243Z,23.50
2018-09-05T10:58:30.731Z,23.60
2018-09-05T11:00:59.237Z,23.60
2018-09-05T11:03:27.732Z,23.70
2018-09-05T11:05:56.193Z,23.70
2018-09-05T11:08:24.688Z,23.70
2018-09-05T11:10:53.269Z,23.80
2018-09-05T11:13:21.704Z,23.80
2018-09-05T11:15:50.279Z,23.80
2018-09-05T11:18:18.787Z,23.90
2018-09-05T11:20:47.297Z,24.00
2018-09-05T11:23:15.807Z,24.10
2018-09-05T11:25:44.315Z,24.20
2018-09-05T11:28:12.820Z,24.30
2018-09-05T11:30:41.510Z,24.20
2018-09-05T11:33:10.009Z,24.20
2018-09-05T11:35:38.505Z,24.30
2018-09-05T11:38:35.753Z,24.30
2018-09-05T11:41:04.282Z,24.30
2018-09-05T11:43:32.796Z,24.30
2018-09-05T11:46:01.443Z,24.30
2018-09-05T11:48:29.936Z,24.20
2018-09-05T11:50:58.483Z,24.20
2018-09-05T11:53:26.933Z,24.20
2018-09-05T11:55:55.449Z,24.20
2018-09-05T11:58:23.960Z,24.30
2018-09-05T12:00:52.466Z,24.40
2018-09-05T12:03:20.923Z,24.50
2018-09-05T12:05:49.403Z,24.50
2018-09-05T12:08:17.893Z,24.60
2018-09-05T12:10:46.461Z,24.60
2018-09-05T12:13:14.948Z,24.60
2018-09-05T12:15:43.979Z,24.60
2018-09-05T12:18:13.878Z,24.70
2018-09-05T12:20:43.709Z,24.80
2018-09-05T12:23:13.568Z,24.70
2018-09-05T12:25:42.151Z,24.70
2018-09-05T12:28:10.738Z,24.60
2018-09-05T12:30:39.188Z,24.60
2018-09-05T12:33:07.736Z,24.60
2018-09-05T12:35:36.465Z,24.60
2018-09-05T12:38:04.953Z,24.70
2018-09-05T12:40:33.525Z,24.60
2018-09-05T12:43:02.080Z,24.60
2018-09-05T12:45:30.609Z,24.60
2018-09-05T12:47:59.072Z,24.50
2018-09-05T12:50:27.560Z,24.50
2018-09-05T12:52:56.080Z,24.40
2018-09-05T12:55:24.610Z,24.40
2018-09-05T12:57:53.087Z,24.50
2018-09-05T13:00:21.681Z,24.60
2018-09-05T13:02:50.200Z,24.70
2018-09-05T13:05:18.669Z,24.80
2018-09-05T13:07:47.201Z,24.90
2018-09-05T13:10:15.715Z,25.00
2018-09-05T13:12:44.172Z,25.20
2018-09-05T13:15:12.686Z,25.30
2018-09-05T13:17:41.170Z,25.60
2018-09-05T13:20:09.651Z,25.70
2018-09-05T13:22:38.152Z,25.80
2018-09-05T13:25:06.705Z,25.90
2018-09-05T13:27:35.219Z,25.90
2018-09-05T13:30:03.760Z,26.00
2018-09-05T13:32:32.252Z,26.20
2018-09-05T13:35:00.768Z,26.40
2018-09-05T13:37:29.231Z,26.60
2018-09-05T13:39:57.731Z,26.60
2018-09-05T13:42:26.203Z,26.70
2018-09-05T13:44:54.718Z,26.70
2018-09-05T13:47:23.313Z,26.80
2018-09-05T13:49:51.812Z,26.90
2018-09-05T13:52:20.539Z,27.00
2018-09-05T13:54:49.072Z,26.90
2018-09-05T13:57:17.558Z,26.90
2018-09-05T13:59:46.098Z,26.90
2018-09-05T14:02:14.576Z,26.90
2018-09-05T14:04:43.060Z,26.90
2018-09-05T14:07:11.588Z,27.00
2018-09-05T14:09:40.095Z,27.20
2018-09-05T14:12:08.786Z,27.20
2018-09-05T14:14:37.274Z,27.20
2018-09-05T14:17:05.896Z,27.30
2018-09-05T14:19:34.375Z,27.20
2018-09-05T14:22:02.884Z,27.30
2018-09-05T14:24:31.457Z,27.40
2018-09-05T14:26:59.941Z,27.50
2018-09-05T14:29:28.479Z,27.30
2018-09-05T14:31:56.943Z,27.40
2018-09-05T14:34:25.463Z,27.50
2018-09-05T14:36:54.025Z,27.50
2018-09-05T14:39:22.487Z,27.70
2018-09-05T14:41:51.026Z,27.80
2018-09-05T14:44:19.508Z,28.00
2018-09-05T14:46:48.017Z,28.30
2018-09-05T14:49:16.533Z,28.60
2018-09-05T14:51:45.028Z,28.80
2018-09-05T14:54:13.513Z,28.90
2018-09-05T14:56:42.023Z,29.00
2018-09-05T14:59:10.461Z,28.90
2018-09-05T15:01:38.987Z,28.70
2018-09-05T15:04:07.547Z,28.60
2018-09-05T15:06:36.229Z,28.60
2018-09-05T15:09:08.099Z,28.50
2018-09-05T15:11:36.733Z,28.40
2018-09-05T15:14:05.336Z,28.40
2018-09-05T15:16:33.849Z,28.10
2018-09-05T15:19:02.369Z,28.00
2018-09-05T15:21:30.929Z,27.90
2018-09-05T15:23:59.434Z,27.60
2018-09-05T15:26:27.938Z,27.20
2018-09-05T15:28:56.452Z,26.80
2018-09-05T15:31:24.954Z,26.60
2018-09-05T15:33:53.395Z,26.30
2018-09-05T15:36:22.003Z,26.00
2018-09-05T15:38:50.499Z,25.70
2018-09-05T15:41:18.963Z,25.50
2018-09-05T15:43:47.464Z,25.20
2018-09-05T15:46:15.935Z,25.10
2018-09-05T15:48:44.650Z,25.20
2018-09-05T15:51:13.132Z,25.10
2018-09-05T15:53:41.659Z,25.10
2018-09-05T15:56:10.132Z,25.00
2018-09-05T15:58:38.667Z,24.80
2018-09-05T16:01:07.155Z,24.70
2018-09-05T16:03:35.660Z,24.60
2018-09-05T16:06:04.215Z,24.50
2018-09-05T16:08:32.716Z,24.40
2018-09-05T16:11:01.223Z,24.30
2018-09-05T16:13:29.824Z,24.20
2018-09-05T16:15:58.310Z,24.10
2018-09-05T16:18:26.827Z,24.00
2018-09-05T16:20:55.444Z,23.90
2018-09-05T16:23:23.903Z,23.90
2018-09-05T16:25:52.442Z,23.80
2018-09-05T16:28:20.959Z,23.70
2018-09-05T16:30:49.433Z,23.70
2018-09-05T16:33:17.984Z,23.60
2018-09-05T16:35:46.535Z,23.50
2018-09-05T16:38:15.039Z,23.40
2018-09-05T16:40:43.587Z,23.40
2018-09-05T16:43:12.040Z,23.30
2018-09-05T16:45:40.563Z,23.30
2018-09-05T16:48:09.115Z,23.20
2018-09-05T16:50:37.903Z,23.10
2018-09-05T16:53:06.513Z,23.00
2018-09-05T16:55:35.074Z,23.00
2018-09-05T16:58:03.550Z,22.90
2018-09-05T17:00:32.083Z,22.80
2018-09-05T17:03:00.588Z,22.70
2018-09-05T17:05:29.204Z,22.60
2018-09-05T17:07:57.666Z,22.50
2018-09-05T17:10:26.225Z,22.40
2018-09-05T17:12:54.693Z,22.30
2018-09-05T17:15:23.195Z,22.30
2018-09-05T17:17:51.668Z,22.10
2018-09-05T17:20:21.271Z,22.10
2018-09-05T17:22:50.632Z,22.00
2018-09-05T17:25:19.173Z,21.90
2018-09-05T17:27:47.654Z,21.80
2018-09-05T17:30:16.197Z,21.70
2018-09-05T17:32:44.704Z,21.60
2018-09-05T17:35:13.325Z,21.50
2018-09-05T17:37:41.812Z,21.40
2018-09-05T17:40:10.282Z,21.20
2018-09-05T17:42:39.231Z,21.10
2018-09-05T17:45:14.188Z,20.90
2018-09-05T17:47:48.951Z,20.80
2018-09-05T17:50:31.362Z,20.70
2018-09-05T17:53:03.285Z,20.50
2018-09-05T17:55:41.391Z,20.40
2018-09-05T17:58:14.400Z,20.30
2018-09-05T18:00:47.430Z,20.20
2018-09-05T18:03:22.336Z,20.10
2018-09-05T18:05:57.884Z,20.00
2018-09-05T18:08:35.657Z,19.90
2018-09-05T18:11:07.530Z,19.80
2018-09-05T18:13:49.060Z,19.70
2018-09-05T18:16:25.813Z,19.50
2018-09-05T18:19:03.877Z,19.30
2018-09-05T18:21:40.874Z,19.20
2018-09-05T18:24:14.025Z,19.10
2018-09-05T18:26:42.905Z,19.00
2018-09-05T18:29:11.361Z,18.90
2018-09-05T18:31:39.945Z,18.80
2018-09-05T18:34:08.473Z,18.80
2018-09-05T18:36:36.961Z,18.80
2018-09-05T18:39:07.360Z,18.80
2018-09-05T18:41:35.921Z,18.90
2018-09-05T18:44:04.500Z,19.00
2018-09-05T18:46:33.083Z,19.00
2018-09-05T18:49:01.607Z,19.10
2018-09-05T18:51:30.073Z,19.10
2018-09-05T18:53:58.611Z,19.00
2018-09-05T18:56:27.196Z,19.00
2018-09-05T18:58:55.727Z,19.00
2018-09-05T19:01:24.261Z,19.00
2018-09-05T19:03:52.943Z,19.00
2018-09-05T19:06:21.565Z,19.00
2018-09-05T19:08:50.126Z,18.90
2018-09-05T19:11:18.634Z,18.90
2018-09-05T19:13:47.182Z,18.80
2018-09-05T19:16:15.705Z,18.80
2018-09-05T19:18:44.251Z,18.70
2018-09-05T19:21:12.761Z,18.70
2018-09-05T19:23:41.336Z,18.60
2018-09-05T19:26:09.864Z,18.60
2018-09-05T19:28:38.457Z,18.50
2018-09-05T19:31:06.929Z,18.50
2018-09-05T19:33:35.456Z,18.40
2018-09-05T19:36:03.931Z,18.40
2018-09-05T19:38:32.497Z,18.30
2018-09-05T19:41:01.072Z,18.30
2018-09-05T19:43:29.770Z,18.20
2018-09-05T19:45:58.272Z,18.20
2018-09-05T19:48:27.328Z,18.20
2018-09-05T19:50:56.017Z,18.10
2018-09-05T19:53:24.526Z,18.10
2018-09-05T19:55:53.039Z,18.00
2018-09-05T19:58:21.569Z,18.00
2018-09-05T20:00:50.086Z,18.00
2018-09-05T20:03:18.792Z,18.00
2018-09-05T20:05:47.474Z,18.00
2018-09-05T20:08:16.015Z,18.00
2018-09-05T20:10:44.540Z,18.00
2018-09-05T20:13:13.232Z,17.90
2018-09-05T20:15:41.811Z,17.90
2018-09-05T20:18:10.299Z,17.90
2018-09-05T20:20:38.783Z,17.90
2018-09-05T20:23:07.377Z,17.80
2018-09-05T20:25:36.300Z,17.80
2018-09-05T20:28:04.838Z,17.70
2018-09-05T20:30:33.359Z,17.70
2018-09-05T20:33:02.090Z,17.60
2018-09-05T20:35:30.542Z,17.60
2018-09-05T20:37:59.165Z,17.50
2018-09-05T20:40:27.711Z,17.50
2018-09-05T20:42:56.182Z,17.40
2018-09-05T20:45:24.670Z,17.40
2018-09-05T20:47:53.181Z,17.40
2018-09-05T20:50:21.895Z,17.40
2018-09-05T20:52:50.411Z,17.40
2018-09-05T20:55:19.072Z,17.30
2018-09-05T20:57:47.677Z,17.30
2018-09-05T21:00:16.355Z,17.30
2018-09-05T21:02:45.033Z,17.20
2018-09-05T21:05:13.552Z,17.20
2018-09-05T21:07:42.040Z,17.20
2018-09-05T21:10:10.860Z,17.20
2018-09-05T21:12:39.583Z,17.10
2018-09-05T21:15:08.061Z,17.00
2018-09-05T21:17:36.791Z,16.90
2018-09-05T21:20:05.643Z,16.80
2018-09-05T21:22:34.179Z,16.80
2018-09-05T21:25:02.725Z,16.90
2018-09-05T21:27:31.212Z,17.00
2018-09-05T21:29:59.710Z,17.00
2018-09-05T21:32:28.250Z,17.00
2018-09-05T21:34:56.731Z,17.00
2018-09-05T21:37:26.036Z,16.90
2018-09-05T21:39:54.558Z,16.90
2018-09-05T21:42:23.073Z,16.90
2018-09-05T21:44:51.607Z,16.90
2018-09-05T21:47:20.162Z,17.00
2018-09-05T21:49:48.639Z,16.90
2018-09-05T21:52:17.140Z,17.00
2018-09-05T21:54:45.651Z,16.90
2018-09-05T21:57:14.213Z,16.90
2018-09-05T21:59:42.747Z,16.90
2018-09-05T22:02:11.287Z,16.90
2018-09-05T22:04:39.951Z,16.80
2018-09-05T22:07:08.432Z,16.70
2018-09-05T22:09:37.013Z,16.70
2018-09-05T22:12:05.552Z,16.70
2018-09-05T22:14:34.340Z,16.70
2018-09-05T22:17:02.874Z,16.60
2018-09-05T22:19:31.534Z,16.50
2018-09-05T22:22:00.098Z,16.50
2018-09-05T22:24:28.780Z,16.40
2018-09-05T22:26:57.418Z,16.40
2018-09-05T22:29:26.243Z,16.30
2018-09-05T22:31:54.965Z,16.30
2018-09-05T22:34:23.545Z,16.30
2018-09-05T22:36:52.190Z,16.20
2018-09-05T22:39:20.711Z,16.20
2018-09-05T22:41:49.803Z,16.10
2018-09-05T22:44:29.748Z,16.10
2018-09-05T22:47:09.392Z,16.10
2018-09-05T22:53:10.961Z,16.20
2018-09-05T22:59:54.796Z,16.20
2018-09-05T23:02:41.735Z,16.20
2018-09-05T23:05:21.756Z,16.10
2018-09-05T23:08:01.777Z,16.10
2018-09-05T23:10:42.734Z,16.10
2018-09-05T23:13:22.608Z,16.10
2018-09-05T23:16:02.629Z,16.10
2018-09-05T23:18:42.660Z,16.00
2018-09-05T23:21:26.975Z,16.00
2018-09-05T23:23:59.820Z,16.00
2018-09-05T23:26:28.665Z,16.00
2018-09-05T23:28:57.399Z,16.00
2018-09-05T23:31:26.048Z,16.00
2018-09-05T23:33:54.561Z,16.00
2018-09-05T23:36:23.312Z,16.00
2018-09-05T23:38:51.834Z,16.00
2018-09-05T23:41:20.402Z,15.90
2018-09-05T23:43:49.027Z,15.90
2018-09-05T23:46:17.682Z,15.90
2018-09-05T23:48:46.255Z,15.80
2018-09-05T23:51:14.912Z,15.80
2018-09-05T23:53:43.460Z,15.80
2018-09-05T23:56:11.960Z,15.70
2018-09-05T23:58:40.527Z,15.70
